Time;durP1;ratioP1;P1;durP2;ratioP2;P2;SDS_P1;SDS_P2;PMS_P1;PMS_P2;Temp;Humidity;BMP_temperature;BMP_pressure;BME280_temperature;BME280_humidity;BME280_pressure;Samples;Min_cycle;Max_cycle;Signal;HPM_P1;HPM_P2
2024/02/15 00:01:17;;;;;;;;;21.50;16.75;;;;;5.33;70.13;101007.81;114591;241;39927;-51
2024/02/15 00:03:51;;;;;;;;;13.00;10.00;;;;;5.30;70.23;101010.39;114450;239;161434;-54
2024/02/15 00:06:25;;;;;;;;;13.00;10.00;;;;;5.32;70.01;101005.40;114612;242;39026;-54
2024/02/15 00:08:59;;;;;;;;;15.00;12.25;;;;;5.38;70.13;101000.09;114617;243;39235;-51
2024/02/15 00:11:34;;;;;;;;;16.00;12.00;;;;;5.42;70.14;100999.88;114437;239;160670;-52
2024/02/15 00:14:08;;;;;;;;;18.00;13.00;;;;;5.42;70.10;100999.23;114585;243;40845;-54
2024/02/15 00:16:42;;;;;;;;;13.75;11.00;;;;;5.44;70.04;100998.42;114463;239;160522;-55
2024/02/15 00:19:17;;;;;;;;;16.00;13.00;;;;;5.37;70.20;100998.70;114574;242;39600;-55
2024/02/15 00:21:51;;;;;;;;;11.00;8.00;;;;;5.33;70.21;100994.83;114506;241;160654;-55
2024/02/15 00:24:24;;;;;;;;;14.75;11.00;;;;;5.30;70.28;100995.25;114572;243;40416;-52
2024/02/15 00:26:58;;;;;;;;;19.50;16.75;;;;;5.34;70.10;100999.73;114564;243;40040;-52
2024/02/15 00:29:34;;;;;;;;;13.00;10.00;;;;;5.34;69.95;101001.85;114408;241;160663;-52
2024/02/15 00:32:10;;;;;;;;;12.50;10.50;;;;;5.36;69.87;101004.48;114559;242;40095;-52
2024/02/15 00:34:43;;;;;;;;;10.00;6.50;;;;;5.31;69.97;100999.60;114411;239;160771;-53
2024/02/15 00:37:17;;;;;;;;;14.33;12.00;;;;;5.29;69.98;101000.55;114563;240;39832;-53
2024/02/15 00:39:51;;;;;;;;;12.00;9.50;;;;;5.27;70.08;101000.35;114471;240;160609;-52
2024/02/15 00:42:25;;;;;;;;;9.67;8.00;;;;;5.29;69.99;101001.63;114548;241;39491;-52
2024/02/15 00:44:59;;;;;;;;;13.00;11.00;;;;;5.24;70.07;101001.73;114614;241;39264;-53
2024/02/15 00:47:34;;;;;;;;;19.00;13.00;;;;;5.19;70.34;101001.08;114136;241;159919;-54
2024/02/15 00:50:09;;;;;;;;;11.67;9.33;;;;;5.17;70.39;101001.45;114583;242;40683;-51
2024/02/15 00:52:43;;;;;;;;;11.33;8.67;;;;;5.17;70.46;101001.52;114419;239;160279;-51
2024/02/15 00:55:19;;;;;;;;;14.75;11.25;;;;;5.16;70.38;100997.95;114593;241;39879;-50
2024/02/15 00:57:53;;;;;;;;;14.00;11.00;;;;;5.15;70.42;101001.98;114476;239;160737;-50
2024/02/15 01:00:27;;;;;;;;;13.25;11.00;;;;;5.13;70.68;101004.00;114593;241;39855;-53
2024/02/15 01:03:01;;;;;;;;;18.00;12.00;;;;;5.10;70.77;101000.55;114622;241;40002;-54
2024/02/15 01:05:35;;;;;;;;;15.00;11.00;;;;;5.10;70.94;100999.67;114779;241;160738;-53
2024/02/15 01:08:10;;;;;;;;;14.00;10.00;;;;;5.16;70.79;101002.61;114570;242;39613;-53
2024/02/15 01:10:44;;;;;;;;;14.00;10.67;;;;;5.22;70.71;101000.52;114435;239;161091;-54
2024/02/15 01:13:18;;;;;;;;;13.50;10.50;;;;;5.26;70.75;100996.17;114560;243;39694;-54
2024/02/15 01:15:52;;;;;;;;;15.25;12.00;;;;;5.27;70.78;100998.20;114436;241;160601;-53
2024/02/15 01:18:26;;;;;;;;;11.50;9.00;;;;;5.27;70.63;100995.55;114524;243;40272;-53
2024/02/15 01:21:00;;;;;;;;;17.00;12.00;;;;;5.27;70.57;100995.32;114570;243;39729;-51
2024/02/15 01:23:36;;;;;;;;;14.67;10.67;;;;;5.30;70.71;100994.52;114400;240;160512;-51
2024/02/15 01:26:10;;;;;;;;;12.00;9.00;;;;;5.29;70.75;100995.00;114565;242;40008;-51
2024/02/15 01:28:45;;;;;;;;;18.00;13.00;;;;;5.27;70.55;100995.49;114402;241;160542;-51
2024/02/15 01:31:34;;;;;;;;;17.25;14.00;;;;;5.26;70.67;100993.06;114494;243;40353;-54
2024/02/15 01:34:09;;;;;;;;;11.67;9.00;;;;;5.20;70.72;100990.09;114558;242;160565;-55
2024/02/15 01:36:43;;;;;;;;;15.25;10.00;;;;;5.17;70.73;100992.20;114350;242;39350;-54
2024/02/15 01:39:16;;;;;;;;;17.00;13.75;;;;;5.17;70.80;100988.95;114560;243;41323;-55
2024/02/15 01:41:55;;;;;;;;;11.50;9.50;;;;;5.19;70.82;100985.91;114153;240;161655;-54
2024/02/15 01:44:30;;;;;;;;;13.00;10.00;;;;;5.17;70.92;100987.58;114276;243;40429;-55
2024/02/15 01:47:05;;;;;;;;;14.00;11.50;;;;;5.17;70.93;100982.36;114249;240;160660;-52
2024/02/15 01:49:40;;;;;;;;;10.50;8.25;;;;;5.18;70.80;100974.44;114899;244;39212;-52
2024/02/15 01:52:14;;;;;;;;;12.00;9.00;;;;;5.14;71.01;100977.09;114111;240;161885;-54
2024/02/15 01:54:49;;;;;;;;;12.00;10.00;;;;;5.15;71.02;100970.23;114399;243;41375;-55
2024/02/15 01:57:24;;;;;;;;;9.00;7.00;;;;;5.15;70.99;100967.77;114603;243;39800;-54
2024/02/15 01:59:59;;;;;;;;;15.00;13.00;;;;;5.15;71.17;100969.02;114395;240;160715;-53
2024/02/15 02:02:36;;;;;;;;;12.67;9.67;;;;;5.15;71.30;100972.04;114545;243;39582;-54
2024/02/15 02:05:11;;;;;;;;;12.25;9.00;;;;;5.18;71.27;100967.98;114232;240;161667;-55
2024/02/15 02:07:45;;;;;;;;;18.50;13.50;;;;;5.17;71.32;100966.36;114914;243;39456;-52
2024/02/15 02:10:19;;;;;;;;;10.00;8.00;;;;;5.20;71.33;100966.94;114820;240;160572;-52
2024/02/15 02:12:54;;;;;;;;;10.00;8.25;;;;;5.22;71.29;100970.10;114517;242;39527;-53
2024/02/15 02:15:28;;;;;;;;;8.25;7.00;;;;;5.26;71.30;100972.10;114534;242;39528;-54
2024/02/15 02:18:02;;;;;;;;;16.00;12.00;;;;;5.29;71.14;100969.82;114224;240;160111;-54
2024/02/15 02:20:36;;;;;;;;;16.50;13.50;;;;;5.30;71.13;100969.94;115201;243;40036;-55
2024/02/15 02:23:15;;;;;;;;;13.00;10.25;;;;;5.28;71.15;100971.48;114667;239;160540;-54
2024/02/15 02:25:49;;;;;;;;;10.00;8.00;;;;;5.25;71.36;100966.48;114555;241;40490;-54
2024/02/15 02:28:23;;;;;;;;;18.00;13.00;;;;;5.20;71.34;100964.20;114435;240;160646;-53
2024/02/15 02:30:59;;;;;;;;;12.50;9.50;;;;;5.21;71.46;100966.83;114566;241;39894;-52
2024/02/15 02:33:34;;;;;;;;;15.00;12.00;;;;;5.19;71.46;100962.41;114585;241;39240;-51
2024/02/15 02:36:11;;;;;;;;;15.75;11.50;;;;;5.19;71.43;100962.73;114542;241;39677;-52
2024/02/15 02:38:48;;;;;;;;;12.75;9.75;;;;;5.20;71.50;100961.51;114542;241;40041;-51
2024/02/15 02:41:23;;;;;;;;;15.33;12.00;;;;;5.18;71.45;100961.19;114556;240;160331;-54
2024/02/15 02:43:57;;;;;;;;;10.75;9.00;;;;;5.17;71.53;100966.49;114605;242;39710;-54
2024/02/15 02:46:31;;;;;;;;;13.00;11.00;;;;;5.16;71.68;100963.70;114452;240;160339;-55
2024/02/15 02:49:05;;;;;;;;;15.00;11.00;;;;;5.15;71.76;100962.94;114570;240;40061;-54
2024/02/15 02:51:40;;;;;;;;;9.00;7.00;;;;;5.10;71.78;100966.43;114613;241;40755;-52
2024/02/15 02:54:14;;;;;;;;;12.00;8.00;;;;;5.14;71.69;100964.08;114293;242;39566;-52
2024/02/15 02:56:49;;;;;;;;;8.50;6.75;;;;;5.14;71.78;100966.61;114526;242;40438;-53
2024/02/15 02:59:23;;;;;;;;;12.75;9.00;;;;;5.16;71.90;100968.58;114418;239;160787;-54
2024/02/15 03:01:58;;;;;;;;;13.00;10.50;;;;;5.17;72.07;100967.39;114575;241;40953;-55
2024/02/15 03:04:33;;;;;;;;;14.75;11.00;;;;;5.23;71.99;100970.15;114449;239;161416;-55
2024/02/15 03:07:07;;;;;;;;;12.25;9.00;;;;;5.28;71.90;100972.04;114581;240;41355;-54
2024/02/15 03:09:41;;;;;;;;;12.25;10.00;;;;;5.33;71.95;100971.05;114598;241;39523;-54
2024/02/15 03:12:17;;;;;;;;;13.75;11.00;;;;;5.36;71.95;100969.02;114280;242;39532;-51
2024/02/15 03:14:51;;;;;;;;;21.00;15.67;;;;;5.37;71.96;100970.55;114597;242;40606;-51
2024/02/15 03:17:26;;;;;;;;;7.75;5.50;;;;;5.32;72.08;100968.47;114438;239;160561;-54
2024/02/15 03:20:00;;;;;;;;;12.25;9.00;;;;;5.30;72.24;100969.88;114573;241;39433;-54
2024/02/15 03:22:35;;;;;;;;;10.00;7.00;;;;;5.31;72.18;100974.07;114478;239;160591;-52
2024/02/15 03:25:13;;;;;;;;;17.75;13.00;;;;;5.25;72.46;100973.74;114596;241;40010;-51
2024/02/15 03:27:47;;;;;;;;;12.50;11.00;;;;;5.20;72.63;100969.25;114453;239;160530;-54
2024/02/15 03:30:21;;;;;;;;;16.00;12.50;;;;;5.18;72.96;100972.08;114538;242;38522;-54
2024/02/15 03:32:55;;;;;;;;;15.00;11.00;;;;;5.18;72.81;100971.19;114262;243;42128;-51
2024/02/15 03:35:31;;;;;;;;;17.00;11.67;;;;;5.16;72.97;100970.86;114378;241;160478;-51
2024/02/15 03:38:06;;;;;;;;;19.00;14.00;;;;;5.14;73.04;100968.95;114609;242;39720;-54
2024/02/15 03:40:40;;;;;;;;;16.00;11.67;;;;;5.09;73.33;100968.99;114316;241;161280;-54
2024/02/15 03:43:15;;;;;;;;;12.67;10.00;;;;;5.08;73.22;100964.97;114479;243;40094;-51
2024/02/15 03:45:52;;;;;;;;;14.75;12.00;;;;;5.07;73.18;100963.16;114482;240;161590;-51
2024/02/15 03:48:26;;;;;;;;;14.25;13.00;;;;;5.04;73.38;100963.92;114668;242;39195;-54
2024/02/15 03:51:01;;;;;;;;;15.00;11.00;;;;;5.05;73.48;100966.33;114586;242;39287;-54
2024/02/15 03:53:37;;;;;;;;;12.00;9.00;;;;;5.07;73.60;100967.07;114362;242;161811;-51
2024/02/15 03:56:11;;;;;;;;;12.00;9.75;;;;;5.09;73.44;100965.59;114564;242;39949;-52
2024/02/15 03:58:46;;;;;;;;;14.00;10.50;;;;;5.16;73.52;100959.45;114531;240;161231;-53
2024/02/15 04:01:20;;;;;;;;;18.00;14.00;;;;;5.15;73.51;100962.72;114664;242;39513;-54
2024/02/15 04:03:55;;;;;;;;;14.00;11.00;;;;;5.13;73.61;100958.85;114471;240;160719;-54
2024/02/15 04:06:31;;;;;;;;;18.00;12.00;;;;;5.13;73.64;100957.92;114702;242;39461;-54
2024/02/15 04:09:07;;;;;;;;;16.25;13.00;;;;;5.16;73.54;100956.41;114588;242;39796;-54
2024/02/15 04:11:42;;;;;;;;;17.50;13.00;;;;;5.13;73.77;100953.80;114204;240;428441;-55
2024/02/15 04:14:18;;;;;;;;;18.33;14.33;;;;;5.07;73.96;100952.45;114598;242;39408;-55
2024/02/15 04:16:52;;;;;;;;;11.00;9.00;;;;;5.05;73.99;100954.02;114562;240;160579;-54
2024/02/15 04:19:27;;;;;;;;;14.00;11.00;;;;;5.06;73.85;100959.27;114563;242;41025;-55
2024/02/15 04:22:04;;;;;;;;;15.00;12.00;;;;;5.06;73.94;100955.36;114462;240;160595;-54
2024/02/15 04:24:39;;;;;;;;;18.00;14.00;;;;;5.07;73.71;100957.27;114657;242;40600;-53
2024/02/15 04:27:14;;;;;;;;;13.75;12.00;;;;;5.05;73.86;100961.17;114591;242;40061;-54
2024/02/15 04:29:50;;;;;;;;;11.50;9.50;;;;;5.06;73.81;100964.15;114583;240;161433;-55
2024/02/15 04:32:24;;;;;;;;;15.50;12.00;;;;;5.03;73.85;100967.59;114571;240;39526;-53
2024/02/15 04:34:59;;;;;;;;;17.50;13.25;;;;;5.01;74.02;100966.06;114455;239;160465;-53
2024/02/15 04:37:34;;;;;;;;;10.25;8.00;;;;;4.95;74.23;100964.41;114568;241;40878;-50
2024/02/15 04:40:13;;;;;;;;;16.00;12.67;;;;;4.97;74.24;100964.92;114415;239;161201;-50
2024/02/15 04:42:47;;;;;;;;;16.00;13.25;;;;;5.03;74.16;100963.70;114516;241;41600;-51
2024/02/15 04:45:22;;;;;;;;;17.50;12.75;;;;;5.07;74.12;100963.33;114571;241;40898;-51
2024/02/15 04:48:01;;;;;;;;;16.75;12.75;;;;;5.10;74.10;100958.26;114443;241;161352;-51
2024/02/15 04:50:36;;;;;;;;;20.25;15.00;;;;;5.14;74.16;100956.29;114761;241;40509;-51
2024/02/15 04:53:10;;;;;;;;;20.00;16.00;;;;;5.16;74.12;100957.13;114451;239;160634;-50
2024/02/15 04:55:44;;;;;;;;;12.33;9.33;;;;;5.16;74.18;100959.06;114585;241;39350;-50
2024/02/15 04:58:19;;;;;;;;;18.33;14.00;;;;;5.16;74.11;100965.84;114484;239;160723;-55
2024/02/15 05:00:57;;;;;;;;;19.00;14.00;;;;;5.20;74.01;100966.23;114589;241;40519;-55
2024/02/15 05:03:34;;;;;;;;;16.75;12.50;;;;;5.17;73.97;100967.67;114622;241;41485;-54
2024/02/15 05:06:12;;;;;;;;;13.00;9.25;;;;;5.14;74.19;100972.13;114572;240;40956;-55
2024/02/15 05:08:47;;;;;;;;;14.50;10.00;;;;;5.15;74.17;100975.97;114800;240;40136;-50
2024/02/15 05:11:22;;;;;;;;;18.00;15.00;;;;;5.16;74.19;100968.75;114564;239;160503;-54
2024/02/15 05:13:56;;;;;;;;;13.00;9.50;;;;;5.15;73.99;100969.34;114604;241;39408;-54
2024/02/15 05:16:31;;;;;;;;;16.25;12.25;;;;;5.13;74.08;100966.86;114434;239;160632;-54
2024/02/15 05:19:05;;;;;;;;;16.33;13.33;;;;;5.10;74.15;100970.91;114576;241;39635;-54
2024/02/15 05:21:40;;;;;;;;;8.00;6.00;;;;;5.10;74.23;100974.08;114558;241;41115;-54
2024/02/15 05:24:15;;;;;;;;;10.75;8.00;;;;;5.12;74.14;100976.21;114541;241;39991;-54
2024/02/15 05:26:50;;;;;;;;;11.00;9.00;;;;;5.09;74.20;100974.23;114751;240;40854;-51
2024/02/15 05:29:24;;;;;;;;;18.00;15.00;;;;;5.11;74.30;100975.42;114516;240;161090;-50
2024/02/15 05:31:59;;;;;;;;;15.00;11.00;;;;;5.14;74.45;100968.72;114577;241;39583;-55
2024/02/15 05:34:32;;;;;;;;;15.00;11.25;;;;;5.18;74.50;100977.06;114490;239;161199;-55
2024/02/15 05:37:07;;;;;;;;;22.00;16.00;;;;;5.23;74.60;100978.92;114581;241;40064;-52
2024/02/15 05:39:41;;;;;;;;;13.50;10.00;;;;;5.25;74.53;100979.83;114600;241;39968;-52
2024/02/15 05:42:16;;;;;;;;;19.00;15.00;;;;;5.28;74.59;100980.80;114569;241;39958;-52
2024/02/15 05:44:50;;;;;;;;;15.25;12.00;;;;;5.30;74.63;100982.52;114665;241;41216;-52
2024/02/15 05:47:24;;;;;;;;;12.00;9.33;;;;;5.33;74.55;100983.57;114482;239;160891;-55
2024/02/15 05:49:58;;;;;;;;;16.75;12.25;;;;;5.34;74.42;100988.45;114584;241;39833;-55
2024/02/15 05:52:33;;;;;;;;;14.00;9.00;;;;;5.31;74.43;100988.52;114480;240;160754;-52
2024/02/15 05:55:09;;;;;;;;;17.50;14.00;;;;;5.29;74.64;100990.17;114623;242;41178;-52
2024/02/15 05:57:43;;;;;;;;;18.00;12.00;;;;;5.30;74.75;100992.04;114604;242;39833;-50
2024/02/15 06:00:19;;;;;;;;;16.00;13.00;;;;;5.25;75.09;100993.08;114501;241;41874;-51
2024/02/15 06:02:54;;;;;;;;;16.50;12.75;;;;;5.23;75.47;100991.62;114586;241;39667;-54
2024/02/15 06:05:29;;;;;;;;;14.67;11.00;;;;;5.24;75.81;100995.15;114415;240;161897;-54
2024/02/15 06:08:03;;;;;;;;;15.00;12.00;;;;;5.22;76.12;100997.77;114540;242;39805;-54
2024/02/15 06:10:36;;;;;;;;;20.75;17.00;;;;;5.20;76.42;101003.54;114416;239;161108;-54
2024/02/15 06:13:11;;;;;;;;;18.00;12.00;;;;;5.22;76.58;101006.70;114582;241;39543;-52
2024/02/15 06:15:46;;;;;;;;;13.00;10.00;;;;;5.29;76.72;101005.30;114580;241;40301;-52
2024/02/15 06:18:24;;;;;;;;;21.00;17.00;;;;;5.31;76.95;101002.64;114262;242;41459;-54
2024/02/15 06:20:59;;;;;;;;;18.00;14.00;;;;;5.32;77.18;101003.32;114565;242;40191;-54
2024/02/15 06:23:35;;;;;;;;;25.75;20.00;;;;;5.32;77.40;101003.95;114580;240;160255;-51
2024/02/15 06:26:12;;;;;;;;;23.00;18.00;;;;;5.34;77.63;101006.67;114637;242;39675;-51
2024/02/15 06:39:59;;;;;;;;;23.00;18.00;;;;;5.23;79.05;101010.89;114470;239;161487;-55
2024/02/15 06:42:33;;;;;;;;;23.75;19.50;;;;;5.14;79.84;101010.64;114568;241;39407;-51
2024/02/15 06:45:10;;;;;;;;;22.00;16.00;;;;;5.12;80.51;101011.79;114599;241;39051;-51
2024/02/15 06:47:45;;;;;;;;;21.00;16.00;;;;;5.14;80.36;101012.09;114392;241;161312;-53
2024/02/15 06:50:20;;;;;;;;;29.50;21.00;;;;;5.18;80.52;101010.46;114575;241;39666;-53
2024/02/15 06:52:54;;;;;;;;;18.00;15.00;;;;;5.22;80.99;101016.20;114413;239;161271;-51
2024/02/15 06:55:29;;;;;;;;;30.00;21.75;;;;;5.20;81.72;101015.29;114644;242;39968;-51
2024/02/15 06:58:05;;;;;;;;;29.00;21.75;;;;;5.18;81.52;101015.70;114449;242;162000;-55
2024/02/15 07:00:41;;;;;;;;;22.00;17.00;;;;;5.23;81.72;101021.46;114523;241;41056;-55
2024/02/15 07:03:17;;;;;;;;;18.33;14.67;;;;;5.23;82.03;101020.77;114623;241;39551;-53
2024/02/15 07:05:51;;;;;;;;;30.25;23.00;;;;;5.27;82.47;101027.11;114601;240;161542;-52
2024/02/15 07:08:26;;;;;;;;;24.00;19.00;;;;;5.31;82.30;101027.14;114615;241;40911;-50
2024/02/15 07:10:59;;;;;;;;;33.50;25.00;;;;;5.29;83.03;101029.62;114427;239;161797;-50
2024/02/15 07:13:34;;;;;;;;;25.00;20.00;;;;;5.29;83.00;101030.38;114570;241;41070;-50
2024/02/15 07:16:11;;;;;;;;;30.25;21.50;;;;;5.27;83.33;101029.08;114456;239;161676;-50
2024/02/15 07:18:46;;;;;;;;;22.33;16.67;;;;;5.31;83.62;101032.49;114536;241;40927;-50
2024/02/15 07:21:25;;;;;;;;;24.67;20.00;;;;;5.35;83.55;101035.71;114595;241;40905;-53
2024/02/15 07:24:00;;;;;;;;;26.50;20.00;;;;;5.35;84.13;101034.45;114452;241;161960;-53
2024/02/15 07:26:36;;;;;;;;;29.50;19.50;;;;;5.36;83.97;101036.50;114624;241;39011;-51
2024/02/15 07:29:10;;;;;;;;;27.75;20.00;;;;;5.33;84.68;101036.39;114446;239;163572;-51
2024/02/15 07:31:45;;;;;;;;;33.50;25.00;;;;;5.38;84.34;101041.02;114603;241;40387;-54
2024/02/15 07:34:20;;;;;;;;;25.33;18.00;;;;;5.43;84.58;101037.69;114431;239;161898;-54
2024/02/15 07:36:55;;;;;;;;;19.33;15.67;;;;;5.44;84.81;101034.92;114535;241;40340;-51
2024/02/15 07:39:30;;;;;;;;;29.00;19.50;;;;;5.48;85.03;101034.55;114587;241;40580;-52
2024/02/15 07:42:04;;;;;;;;;28.25;22.00;;;;;5.46;85.31;101032.75;114427;239;161766;-54
2024/02/15 07:44:39;;;;;;;;;25.00;20.00;;;;;5.41;85.78;101029.48;114653;240;39846;-54
2024/02/15 07:47:13;;;;;;;;;24.00;17.00;;;;;5.38;86.15;101030.10;114467;239;161539;-55
2024/02/15 07:49:47;;;;;;;;;28.00;19.00;;;;;5.38;86.22;101029.14;114596;241;39341;-55
2024/02/15 07:52:22;;;;;;;;;26.25;18.75;;;;;5.47;86.13;101025.17;114460;240;162375;-56
2024/02/15 07:54:57;;;;;;;;;30.00;22.00;;;;;5.53;86.52;101019.95;114650;242;39877;-56
2024/02/15 07:57:31;;;;;;;;;32.50;22.25;;;;;5.63;86.22;101019.72;114599;242;39258;-53
2024/02/15 08:00:10;;;;;;;;;27.00;21.00;;;;;5.70;86.44;101022.81;114524;240;161769;-53
2024/02/15 08:02:44;;;;;;;;;29.33;22.00;;;;;5.70;86.21;101025.45;114596;242;40162;-53
2024/02/15 08:05:19;;;;;;;;;32.50;21.50;;;;;5.74;86.29;101022.95;114427;239;161427;-53
2024/02/15 08:07:57;;;;;;;;;27.25;20.25;;;;;5.77;86.17;101027.29;114600;241;40818;-54
2024/02/15 08:10:32;;;;;;;;;35.67;25.00;;;;;5.81;86.23;101026.59;114472;239;162240;-53
2024/02/15 08:13:08;;;;;;;;;39.67;27.00;;;;;5.79;86.79;101028.39;114624;241;40303;-55
2024/02/15 08:15:44;;;;;;;;;33.00;22.00;;;;;5.75;86.67;101022.10;114608;241;40286;-55
2024/02/15 08:18:18;;;;;;;;;23.33;18.00;;;;;5.77;86.82;101020.88;114365;241;39492;-56
2024/02/15 08:20:52;;;;;;;;;31.33;23.00;;;;;5.82;86.81;101024.70;114622;241;39637;-56
2024/02/15 08:23:27;;;;;;;;;29.00;20.00;;;;;5.80;87.15;101026.81;114428;239;162584;-56
2024/02/15 08:26:01;;;;;;;;;28.50;21.25;;;;;5.73;87.51;101031.42;114600;241;40311;-56
2024/02/15 08:28:34;;;;;;;;;29.00;22.50;;;;;5.74;87.30;101031.84;114475;240;162213;-52
2024/02/15 08:31:09;;;;;;;;;21.33;17.00;;;;;5.75;87.34;101038.21;114662;242;40568;-52
2024/02/15 08:33:44;;;;;;;;;31.33;22.00;;;;;5.74;87.52;101036.73;114530;242;40612;-55
2024/02/15 08:36:18;;;;;;;;;37.25;24.75;;;;;5.76;87.64;101036.15;114571;239;161180;-53
2024/02/15 08:38:53;;;;;;;;;34.00;26.00;;;;;5.82;87.65;101030.05;114577;242;39743;-55
2024/02/15 08:41:28;;;;;;;;;30.00;20.50;;;;;5.84;87.67;101033.30;114391;241;161642;-53
2024/02/15 08:44:08;;;;;;;;;34.33;24.33;;;;;5.92;87.72;101034.70;114540;242;39431;-53
2024/02/15 08:46:42;;;;;;;;;39.00;28.00;;;;;5.94;87.59;101036.25;114492;240;161480;-51
2024/02/15 08:49:17;;;;;;;;;32.00;25.00;;;;;5.94;87.79;101043.05;114676;242;40364;-51
2024/02/15 08:51:51;;;;;;;;;38.67;29.00;;;;;5.96;88.02;101043.07;114262;242;39985;-53
2024/02/15 08:54:26;;;;;;;;;32.00;24.50;;;;;5.93;88.09;101043.84;114278;242;39999;-53
2024/02/15 08:57:01;;;;;;;;;32.00;25.00;;;;;6.01;88.12;101044.35;114582;242;40355;-56
2024/02/15 08:59:35;;;;;;;;;32.00;23.33;;;;;6.07;88.13;101050.96;114559;240;161800;-56
2024/02/15 09:02:09;;;;;;;;;44.00;32.00;;;;;6.14;88.42;101052.94;114631;241;39733;-52
2024/02/15 09:04:43;;;;;;;;;33.50;24.75;;;;;6.16;88.22;101054.93;114444;241;161838;-52
2024/02/15 09:07:17;;;;;;;;;42.25;30.00;;;;;6.19;88.01;101054.45;114561;242;38859;-52
2024/02/15 09:09:51;;;;;;;;;30.00;22.00;;;;;6.16;88.34;101052.01;114567;242;39283;-52
2024/02/15 09:12:26;;;;;;;;;34.00;25.00;;;;;6.15;88.39;101052.86;114270;242;39442;-55
2024/02/15 09:15:00;;;;;;;;;31.25;23.25;;;;;6.15;88.65;101050.17;114614;242;39438;-55
2024/02/15 09:17:38;;;;;;;;;36.33;25.67;;;;;6.12;89.06;101048.88;114433;240;161793;-53
2024/02/15 09:20:19;;;;;;;;;40.25;27.00;;;;;6.17;88.96;101048.05;114575;241;39909;-53
2024/02/15 09:22:55;;;;;;;;;33.00;24.00;;;;;6.25;89.09;101047.08;114431;241;161490;-52
2024/02/15 09:25:31;;;;;;;;;37.33;24.67;;;;;6.30;89.10;101050.69;114273;243;39808;-52
2024/02/15 09:28:05;;;;;;;;;34.00;26.00;;;;;6.32;89.23;101048.94;114144;240;161687;-54
2024/02/15 09:30:38;;;;;;;;;42.00;29.00;;;;;6.34;89.44;101052.63;114498;243;41515;-53
2024/02/15 09:33:13;;;;;;;;;37.50;25.75;;;;;6.41;89.45;101056.05;114546;243;39451;-57
2024/02/15 09:35:47;;;;;;;;;41.00;28.00;;;;;6.54;89.60;101057.14;114395;239;161479;-57
2024/02/15 09:38:25;;;;;;;;;35.25;26.50;;;;;6.61;89.76;101059.38;114570;242;40118;-53
2024/02/15 09:40:59;;;;;;;;;37.50;28.00;;;;;6.67;89.55;101060.95;114423;240;161485;-52
2024/02/15 09:43:35;;;;;;;;;35.00;26.00;;;;;6.71;89.38;101063.73;114575;242;41054;-55
2024/02/15 09:46:10;;;;;;;;;35.75;25.50;;;;;6.74;89.34;101063.95;114496;239;162014;-56
2024/02/15 09:48:51;;;;;;;;;36.00;27.33;;;;;6.70;89.37;101066.31;114569;242;39811;-54
2024/02/15 09:51:26;;;;;;;;;37.75;28.75;;;;;6.76;89.15;101060.41;114619;242;40521;-54
2024/02/15 09:54:02;;;;;;;;;38.50;27.50;;;;;6.73;89.57;101057.96;114436;240;161463;-53
2024/02/15 09:56:37;;;;;;;;;42.33;32.00;;;;;6.81;89.53;101052.73;114596;242;39718;-55
2024/02/15 09:59:11;;;;;;;;;40.25;30.50;;;;;6.86;89.35;101055.26;114432;239;160746;-55
2024/02/15 10:01:48;;;;;;;;;43.00;33.00;;;;;6.91;89.34;101059.62;114601;242;39910;-55
2024/02/15 10:04:23;;;;;;;;;32.00;24.00;;;;;6.84;89.12;101060.98;114440;241;161456;-55
2024/02/15 10:06:58;;;;;;;;;31.25;23.50;;;;;6.83;89.32;101057.14;114556;243;41096;-55
2024/02/15 10:09:33;;;;;;;;;34.75;27.25;;;;;6.82;89.45;101055.54;114547;243;39954;-56
2024/02/15 10:12:09;;;;;;;;;34.75;26.00;;;;;6.89;89.59;101052.11;114363;239;161614;-52
2024/02/15 10:14:53;;;;;;;;;39.00;28.67;;;;;6.97;89.68;101052.61;114532;242;40266;-52
2024/02/15 10:17:28;;;;;;;;;31.50;23.50;;;;;7.11;89.69;101046.66;114443;239;161466;-56
2024/02/15 10:20:11;;;;;;;;;36.00;26.25;;;;;7.28;89.62;101048.20;114588;242;40231;-58
2024/02/15 10:22:45;;;;;;;;;36.50;27.00;;;;;7.37;89.75;101046.79;114466;239;161554;-50
2024/02/15 10:25:20;;;;;;;;;43.50;32.00;;;;;7.54;89.47;101046.31;114558;242;39661;-50
2024/02/15 10:28:02;;;;;;;;;40.00;29.00;;;;;7.54;89.47;101045.02;114597;242;40322;-55
2024/02/15 10:30:38;;;;;;;;;40.00;29.75;;;;;7.51;89.47;101042.99;114473;242;40719;-55
2024/02/15 10:33:19;;;;;;;;;40.75;29.25;;;;;7.50;89.49;101040.10;114614;241;39791;-54
2024/02/15 10:36:06;;;;;;;;;42.67;32.33;;;;;7.52;89.36;101042.73;114428;239;161568;-54
2024/02/15 10:38:40;;;;;;;;;42.25;31.50;;;;;7.50;89.46;101041.20;114591;241;39181;-54
2024/02/15 10:41:14;;;;;;;;;43.00;33.00;;;;;7.47;89.64;101036.04;114471;239;160941;-53
2024/02/15 10:43:51;;;;;;;;;33.75;24.25;;;;;7.52;89.42;101034.71;114571;241;39522;-53
2024/02/15 10:46:26;;;;;;;;;35.00;27.00;;;;;7.60;89.41;101028.77;114522;240;160954;-55
2024/02/15 10:49:00;;;;;;;;;43.00;33.00;;;;;7.57;89.42;101023.73;114717;242;39653;-56
2024/02/15 10:51:36;;;;;;;;;36.25;27.00;;;;;7.59;89.46;101025.50;114573;242;39460;-55
2024/02/15 10:54:17;;;;;;;;;40.25;29.00;;;;;7.55;89.30;101024.66;114596;242;161536;-56
2024/02/15 10:56:59;;;;;;;;;37.00;25.50;;;;;7.57;89.33;101025.38;114570;242;40151;-53
2024/02/15 10:59:40;;;;;;;;;49.33;34.00;;;;;7.56;89.47;101029.77;114442;242;161530;-53
2024/02/15 11:02:30;;;;;;;;;41.00;30.00;;;;;7.54;89.63;101035.20;114581;242;40328;-55
2024/02/15 11:05:10;;;;;;;;;43.75;30.75;;;;;7.53;89.89;101033.70;114492;240;161462;-56
2024/02/15 11:07:44;;;;;;;;;37.75;26.75;;;;;7.61;89.73;101030.31;114586;241;40218;-55
2024/02/15 11:10:19;;;;;;;;;44.67;30.33;;;;;7.66;89.69;101027.48;114456;239;161692;-56
2024/02/15 11:12:53;;;;;;;;;36.00;27.00;;;;;7.68;89.67;101029.44;114552;241;39438;-52
2024/02/15 11:15:49;;;;;;;;;38.00;26.75;;;;;7.66;89.74;101028.61;114591;241;39303;-51
2024/02/15 11:18:51;;;;;;;;;43.00;30.00;;;;;7.57;90.27;101024.30;114294;242;40090;-53
2024/02/15 11:21:57;;;;;;;;;37.75;26.75;;;;;7.62;90.18;101024.65;114529;242;39085;-52
2024/02/15 11:24:36;;;;;;;;;42.00;28.25;;;;;7.64;90.37;101020.88;114291;242;41623;-52
2024/02/15 11:27:13;;;;;;;;;45.25;33.25;;;;;7.68;90.47;101019.56;114584;242;39335;-55
2024/02/15 11:30:02;;;;;;;;;46.33;29.67;;;;;7.74;90.45;101017.19;114608;240;161489;-55
2024/02/15 11:32:48;;;;;;;;;39.50;27.50;;;;;7.81;90.70;101019.73;114571;242;41110;-56
2024/02/15 11:35:32;;;;;;;;;42.00;28.00;;;;;7.86;90.65;101014.52;114450;239;162616;-56
2024/02/15 11:38:13;;;;;;;;;37.67;27.67;;;;;7.87;90.70;101009.80;114589;240;39513;-53
2024/02/15 11:41:19;;;;;;;;;43.00;32.00;;;;;7.92;90.70;101010.16;114463;239;160862;-54
2024/02/15 11:43:59;;;;;;;;;44.25;31.25;;;;;7.88;90.86;101012.75;114398;241;40908;-56
2024/02/15 11:46:34;;;;;;;;;37.75;24.50;;;;;7.96;90.88;101012.97;114479;239;161444;-56
2024/02/15 11:49:08;;;;;;;;;45.67;34.00;;;;;8.00;90.83;101010.21;114575;241;39629;-56
2024/02/15 11:51:43;;;;;;;;;46.50;33.25;;;;;8.04;90.89;101010.88;114613;240;39604;-55
2024/02/15 11:54:21;;;;;;;;;39.00;28.50;;;;;8.09;90.94;101012.64;114416;239;161427;-55
2024/02/15 11:57:13;;;;;;;;;40.00;30.00;;;;;8.10;91.02;101010.35;114630;241;39407;-56
2024/02/15 12:19:33;;;;;;;;;45.00;32.50;;;;;8.58;90.52;100999.95;114596;241;39203;-56
2024/02/15 12:22:08;;;;;;;;;46.00;32.00;;;;;8.59;90.45;100999.34;114459;239;161551;-52
2024/02/15 12:24:43;;;;;;;;;43.33;30.33;;;;;8.66;90.46;100998.77;114551;241;39691;-52
2024/02/15 12:27:19;;;;;;;;;54.00;38.00;;;;;8.70;90.40;100998.34;114643;241;39843;-52